Time;durP1;ratioP1;P1;durP2;ratioP2;P2;SDS_P1;SDS_P2;PMS_P1;PMS_P2;Temp;Humidity;BMP_temperature;BMP_pressure;BME280_temperature;BME280_humidity;BME280_pressure;Samples;Min_cycle;Max_cycle;Signal;HPM_P1;HPM_P2
2022/06/07 00:00:36;;;;;;;5.80;5.13;;;;;;;17.48;75.52;94908.03;5077734;28;20186;-72
2022/06/07 00:03:03;;;;;;;5.30;4.47;;;;;;;17.45;75.82;94915.22;5076330;28;20510;-71
2022/06/07 00:05:30;;;;;;;5.63;5.07;;;;;;;17.48;75.70;94919.19;5076393;28;20243;-73
2022/06/07 00:07:57;;;;;;;5.85;5.10;;;;;;;17.45;75.78;94920.00;5076863;28;20197;-73
2022/06/07 00:10:26;;;;;;;6.35;5.20;;;;;;;17.43;75.88;94919.59;5076316;28;20205;-73
2022/06/07 00:12:53;;;;;;;5.13;4.68;;;;;;;17.45;76.10;94928.34;5076918;28;20606;-72
2022/06/07 00:15:21;;;;;;;5.35;4.90;;;;;;;17.47;76.31;94932.34;5077146;28;20239;-71
2022/06/07 00:17:48;;;;;;;6.70;5.20;;;;;;;17.40;75.89;94926.78;5076917;28;20558;-71
2022/06/07 00:20:15;;;;;;;5.88;5.18;;;;;;;17.36;75.89;94925.16;5077138;28;20197;-71
2022/06/07 00:22:42;;;;;;;6.53;5.88;;;;;;;17.25;75.61;94923.22;5077092;28;20212;-71
2022/06/07 00:25:11;;;;;;;5.22;4.82;;;;;;;17.22;75.90;94917.63;5077034;28;20216;-71
2022/06/07 00:27:39;;;;;;;5.10;4.60;;;;;;;17.20;75.79;94918.03;5075989;28;20205;-71
2022/06/07 00:30:08;;;;;;;6.25;4.70;;;;;;;17.19;75.81;94921.22;5076559;28;20197;-72
2022/06/07 00:32:36;;;;;;;5.45;4.95;;;;;;;17.17;76.14;94926.38;5076896;28;20241;-73
2022/06/07 00:35:04;;;;;;;5.45;4.95;;;;;;;17.20;76.58;94920.81;5076466;28;20205;-73
2022/06/07 00:37:31;;;;;;;5.35;4.82;;;;;;;17.20;75.98;94923.59;5076432;28;20181;-73
2022/06/07 00:39:57;;;;;;;5.40;4.88;;;;;;;17.22;76.15;94924.00;5076451;28;20204;-72
2022/06/07 00:42:24;;;;;;;5.28;4.53;;;;;;;17.25;76.34;94928.00;5076772;28;20201;-72
2022/06/07 00:44:54;;;;;;;5.90;4.57;;;;;;;17.25;76.41;94928.78;5076675;28;20182;-73
2022/06/07 00:47:23;;;;;;;5.43;4.88;;;;;;;17.28;76.64;94933.56;5075357;28;20197;-73
2022/06/07 00:49:52;;;;;;;6.75;5.22;;;;;;;17.27;76.38;94934.75;5076525;28;20189;-73
2022/06/07 00:52:20;;;;;;;6.60;4.85;;;;;;;17.29;76.56;94931.56;5075548;28;20201;-73
2022/06/07 00:54:47;;;;;;;5.82;5.00;;;;;;;17.28;76.99;94933.56;5076245;28;20216;-73
2022/06/07 00:57:14;;;;;;;5.95;4.90;;;;;;;17.26;76.62;94937.94;5075173;28;20662;-73
2022/06/07 00:59:41;;;;;;;5.00;4.40;;;;;;;17.26;76.55;94935.94;5076085;28;20616;-73
2022/06/07 01:02:09;;;;;;;5.00;4.60;;;;;;;17.29;76.51;94937.16;5075412;28;20201;-73
2022/06/07 01:04:36;;;;;;;5.35;4.60;;;;;;;17.28;76.60;94922.41;5076263;28;20206;-73
2022/06/07 01:12:33;;;;;;;5.15;4.60;;;;;;;17.28;76.40;94922.41;5075586;28;20296;-74
2022/06/07 01:15:00;;;;;;;5.30;4.47;;;;;;;17.30;76.44;94924.78;5075285;28;20201;-73
2022/06/07 01:17:28;;;;;;;5.18;4.22;;;;;;;17.27;76.33;94929.16;5075698;28;20189;-73
2022/06/07 01:19:55;;;;;;;5.03;4.63;;;;;;;17.15;75.86;94937.16;5075677;28;20661;-73
2022/06/07 01:22:24;;;;;;;7.70;4.50;;;;;;;17.08;75.84;94929.59;5075754;28;20201;-73
2022/06/07 01:24:52;;;;;;;6.88;4.63;;;;;;;17.01;76.19;94924.81;5076127;28;20699;-73
2022/06/07 01:27:19;;;;;;;4.85;4.45;;;;;;;16.99;76.43;94926.38;5074980;28;20197;-74
2022/06/07 01:29:45;;;;;;;5.03;4.63;;;;;;;16.99;76.85;94931.97;5075166;28;20254;-73
2022/06/07 01:32:13;;;;;;;5.10;4.60;;;;;;;17.01;76.90;94932.38;5075126;28;20205;-73
2022/06/07 01:34:42;;;;;;;4.72;4.32;;;;;;;17.01;76.55;94926.78;5075874;28;20267;-73
2022/06/07 01:37:09;;;;;;;6.40;4.30;;;;;;;16.93;76.03;94930.78;5075030;28;20197;-73
2022/06/07 01:42:22;;;;;;;5.03;4.55;;;;;;;16.88;76.76;94931.16;5074408;28;20197;-74
2022/06/07 01:44:50;;;;;;;4.68;4.28;;;;;;;16.85;76.49;94935.56;5057666;28;20694;-73
2022/06/07 01:47:19;;;;;;;4.90;4.32;;;;;;;16.84;76.90;94937.50;5075382;28;20204;-73
2022/06/07 01:49:46;;;;;;;5.47;4.90;;;;;;;16.80;76.68;94930.34;5075376;28;20196;-73
2022/06/07 01:52:14;;;;;;;5.88;5.25;;;;;;;16.78;76.96;94930.78;5075423;28;20196;-73
2022/06/07 01:54:42;;;;;;;6.72;4.45;;;;;;;16.80;77.55;94916.44;5075525;28;20209;-73
2022/06/07 01:57:09;;;;;;;5.03;4.53;;;;;;;16.87;77.58;94908.09;5075532;28;20181;-73
2022/06/07 01:59:38;;;;;;;5.13;4.47;;;;;;;16.92;77.34;94916.06;5075371;28;20197;-73
2022/06/07 02:02:06;;;;;;;4.88;4.47;;;;;;;16.88;77.10;94912.44;5075023;28;20207;-73
2022/06/07 02:04:33;;;;;;;5.00;4.50;;;;;;;16.81;77.11;94906.88;5057539;28;20209;-73
2022/06/07 02:06:59;;;;;;;5.00;4.68;;;;;;;16.76;77.36;94908.06;5074594;28;20250;-74
2022/06/07 02:09:27;;;;;;;5.13;4.53;;;;;;;16.73;77.37;94911.63;5074886;28;20191;-74
2022/06/07 02:11:55;;;;;;;5.10;4.65;;;;;;;16.75;77.79;94919.63;5074629;28;20244;-74
2022/06/07 02:14:22;;;;;;;6.03;5.00;;;;;;;16.80;78.18;94913.66;5075150;28;20193;-73
2022/06/07 02:16:49;;;;;;;5.10;4.70;;;;;;;16.83;78.00;94913.66;5075191;28;20196;-72
2022/06/07 02:19:15;;;;;;;5.82;5.32;;;;;;;16.83;78.03;94913.66;5074329;28;20208;-72
2022/06/07 02:21:42;;;;;;;5.38;4.88;;;;;;;16.82;78.04;94911.28;5075003;28;20178;-72
2022/06/07 02:24:10;;;;;;;7.20;5.38;;;;;;;16.84;78.10;94908.88;5073904;28;20229;-72
2022/06/07 02:26:39;;;;;;;5.78;4.97;;;;;;;16.83;77.93;94915.66;5078546;28;20185;-72
2022/06/07 02:29:11;;;;;;;7.43;5.13;;;;;;;16.83;77.94;94912.84;5078446;28;20213;-71
2022/06/07 02:31:42;;;;;;;5.78;5.20;;;;;;;16.79;77.97;94909.28;5078849;28;20181;-72
2022/06/07 02:34:09;;;;;;;5.22;4.80;;;;;;;16.76;77.68;94924.78;5078209;28;20254;-71
2022/06/07 02:36:36;;;;;;;7.38;5.32;;;;;;;16.70;77.28;94929.09;5079012;28;20201;-71
2022/06/07 02:39:04;;;;;;;6.05;5.40;;;;;;;16.65;77.18;94923.94;5079317;28;20189;-71
2022/06/07 02:41:33;;;;;;;7.57;5.93;;;;;;;16.63;77.62;94931.09;5078965;28;20185;-71
2022/06/07 02:44:00;;;;;;;6.57;4.95;;;;;;;16.66;77.99;94924.75;5079305;28;20189;-73
2022/06/07 02:46:28;;;;;;;6.40;5.72;;;;;;;16.67;77.67;94927.16;5077875;28;20205;-72
2022/06/07 02:48:54;;;;;;;6.35;5.75;;;;;;;16.70;77.71;94926.31;5078057;28;20205;-72
2022/06/07 02:51:21;;;;;;;5.72;5.20;;;;;;;16.72;77.82;94920.38;5077920;28;20197;-72
2022/06/07 02:53:48;;;;;;;6.65;6.07;;;;;;;16.74;78.20;94918.00;5077885;28;20251;-72
2022/06/07 02:56:15;;;;;;;6.43;5.80;;;;;;;16.74;78.22;94926.38;5078594;28;20209;-72
2022/06/07 02:58:41;;;;;;;6.72;5.53;;;;;;;16.74;78.10;94937.50;5078011;28;20200;-72
2022/06/07 03:01:08;;;;;;;8.45;6.20;;;;;;;16.70;78.17;94936.69;5077739;28;20204;-73
2022/06/07 03:03:38;;;;;;;7.35;5.70;;;;;;;16.67;78.46;94943.84;5077678;28;20201;-73
2022/06/07 03:06:06;;;;;;;6.65;5.93;;;;;;;16.70;78.42;94947.81;5078522;28;20189;-73
2022/06/07 03:08:33;;;;;;;7.35;6.65;;;;;;;16.70;78.35;94954.19;5078529;28;20200;-70
2022/06/07 03:10:59;;;;;;;7.20;5.60;;;;;;;16.70;78.43;94954.19;5077373;28;20216;-74
2022/06/07 03:13:26;;;;;;;7.10;5.60;;;;;;;16.74;78.42;94954.22;5077176;28;20197;-74
2022/06/07 03:15:53;;;;;;;7.03;5.75;;;;;;;16.76;78.05;94957.41;5077627;28;20217;-71
2022/06/07 03:18:21;;;;;;;6.60;5.88;;;;;;;16.75;77.96;94956.63;5079324;28;20186;-73
2022/06/07 03:20:49;;;;;;;6.65;5.88;;;;;;;16.72;77.83;94965.72;5078295;28;20302;-73
2022/06/07 03:23:16;;;;;;;5.90;5.40;;;;;;;16.74;77.78;94968.97;5078004;28;20229;-75
2022/06/07 03:25:43;;;;;;;6.70;5.60;;;;;;;16.73;77.45;94967.31;5077951;28;20177;-75
2022/06/07 03:28:10;;;;;;;5.93;5.38;;;;;;;16.73;77.43;94966.53;5078780;28;20189;-75
2022/06/07 03:30:39;;;;;;;6.43;5.80;;;;;;;16.72;77.45;94964.94;5077997;28;20178;-76
2022/06/07 03:33:06;;;;;;;7.30;5.70;;;;;;;16.74;77.35;94966.19;5078283;28;20185;-75
2022/06/07 03:35:33;;;;;;;7.00;6.38;;;;;;;16.77;77.39;94967.34;5076783;28;20222;-75
2022/06/07 03:38:02;;;;;;;6.90;6.28;;;;;;;16.78;77.47;94966.97;5076785;28;20196;-74
2022/06/07 03:40:44;;;;;;;7.72;6.90;;;;;;;16.78;77.83;94968.97;5077701;28;20193;-74
2022/06/07 03:43:11;;;;;;;8.45;7.63;;;;;;;16.76;78.12;94963.78;5077919;28;20242;-71
2022/06/07 03:45:38;;;;;;;7.20;6.50;;;;;;;16.74;77.99;94963.38;5077483;28;20188;-71
2022/06/07 03:48:05;;;;;;;7.32;6.72;;;;;;;16.77;77.84;94967.34;5077879;28;20246;-74
2022/06/07 03:50:32;;;;;;;8.82;7.13;;;;;;;16.79;77.68;94970.56;5077105;28;20196;-75
2022/06/07 03:53:00;;;;;;;8.75;7.85;;;;;;;16.75;77.67;94964.97;5076534;28;20197;-73
2022/06/07 03:55:29;;;;;;;7.97;7.13;;;;;;;16.74;78.07;94968.97;5076614;28;20217;-74
2022/06/07 03:57:55;;;;;;;9.02;8.10;;;;;;;16.76;78.21;94980.47;5076411;28;20197;-70
2022/06/07 04:00:22;;;;;;;9.85;7.38;;;;;;;16.79;78.38;94978.91;5077652;28;20208;-77
2022/06/07 04:02:49;;;;;;;9.95;7.85;;;;;;;16.82;78.68;94978.13;5076776;28;20209;-70
2022/06/07 04:05:16;;;;;;;8.35;7.53;;;;;;;16.86;78.40;94966.97;5076550;28;20204;-74
2022/06/07 04:10:27;;;;;;;8.82;7.93;;;;;;;16.89;78.49;94964.19;5076688;28;20193;-73
2022/06/07 04:12:55;;;;;;;8.05;7.35;;;;;;;16.94;78.45;94972.16;5077408;28;20242;-73
2022/06/07 04:15:21;;;;;;;8.30;7.50;;;;;;;16.96;77.94;94967.00;5077181;28;20205;-74
2022/06/07 04:17:50;;;;;;;8.27;7.30;;;;;;;16.96;77.66;94975.34;5076439;28;20304;-73
2022/06/07 04:20:18;;;;;;;8.07;6.97;;;;;;;16.96;77.70;94975.34;5076858;28;20549;-73
2022/06/07 04:22:45;;;;;;;7.72;6.82;;;;;;;16.99;78.40;94979.31;5059539;28;20209;-73
2022/06/07 04:25:12;;;;;;;7.93;6.72;;;;;;;17.01;78.02;94982.53;5076213;28;20208;-73
2022/06/07 04:27:38;;;;;;;8.18;7.50;;;;;;;17.01;77.63;94974.94;5077041;28;20185;-73
2022/06/07 04:30:08;;;;;;;9.02;8.13;;;;;;;17.02;77.49;94978.53;5076548;28;20653;-72
2022/06/07 04:32:35;;;;;;;11.32;9.18;;;;;;;17.01;77.50;94977.75;5076348;28;20208;-72
2022/06/07 04:35:01;;;;;;;10.45;9.32;;;;;;;17.02;78.19;94981.31;5076202;28;20188;-73
2022/06/07 04:37:29;;;;;;;12.30;9.80;;;;;;;17.04;77.90;94976.94;5075804;28;20239;-74
2022/06/07 04:39:56;;;;;;;12.27;9.65;;;;;;;17.03;77.78;94978.16;5076499;28;20704;-73
2022/06/07 04:42:23;;;;;;;11.32;9.20;;;;;;;17.05;78.77;94980.53;5076952;28;20189;-73
2022/06/07 04:44:51;;;;;;;13.63;9.68;;;;;;;17.06;78.67;94982.13;5075850;28;20201;-74
2022/06/07 04:47:19;;;;;;;12.60;8.95;;;;;;;17.09;78.51;94981.31;5076573;28;20189;-73
2022/06/07 04:49:46;;;;;;;11.05;9.27;;;;;;;17.11;78.36;94978.16;5075166;28;20200;-73
2022/06/07 04:52:13;;;;;;;12.52;9.80;;;;;;;17.15;78.83;94984.53;5076484;28;20181;-75
2022/06/07 04:54:40;;;;;;;11.98;9.48;;;;;;;17.17;78.11;94984.91;5076226;28;20189;-73
2022/06/07 04:57:07;;;;;;;11.75;9.15;;;;;;;17.14;77.77;94983.72;5075456;28;20239;-73
2022/06/07 04:59:34;;;;;;;9.98;8.77;;;;;;;17.15;77.91;94990.09;5076306;28;20243;-73
2022/06/07 05:02:01;;;;;;;13.98;9.30;;;;;;;17.19;78.33;94988.91;5076370;28;20185;-73
2022/06/07 05:04:29;;;;;;;13.63;8.70;;;;;;;17.22;77.62;94998.47;5075503;28;20247;-73
2022/06/07 05:06:55;;;;;;;9.85;8.85;;;;;;;17.22;77.14;95001.25;5075507;28;20197;-73
2022/06/07 05:09:24;;;;;;;12.30;8.88;;;;;;;17.18;77.43;94990.09;5075272;28;20201;-73
2022/06/07 05:11:52;;;;;;;11.57;8.75;;;;;;;17.18;77.77;94998.47;5076565;28;20219;-73
2022/06/07 05:14:19;;;;;;;10.55;8.52;;;;;;;17.21;78.02;94999.63;5075242;28;20204;-73
2022/06/07 05:16:47;;;;;;;9.48;8.48;;;;;;;17.25;77.69;94989.31;5075947;28;20215;-71
2022/06/07 05:19:14;;;;;;;11.82;8.57;;;;;;;17.27;77.53;94993.28;5075822;28;20232;-71
2022/06/07 05:21:43;;;;;;;11.77;9.18;;;;;;;17.30;77.36;95000.06;5075811;28;20605;-72
2022/06/07 05:24:10;;;;;;;10.15;9.15;;;;;;;17.26;77.32;95007.63;5075618;28;20661;-72
2022/06/07 05:26:39;;;;;;;15.35;10.38;;;;;;;17.24;77.46;95007.22;5075070;28;20296;-72
2022/06/07 05:29:07;;;;;;;13.88;9.73;;;;;;;17.21;77.86;95006.03;5075829;28;20213;-72
2022/06/07 05:31:34;;;;;;;12.43;9.60;;;;;;;17.22;78.16;95006.81;5074913;28;20230;-72
2022/06/07 05:34:01;;;;;;;11.55;9.38;;;;;;;17.23;78.12;95009.19;5075940;28;20181;-72
2022/06/07 05:36:28;;;;;;;10.27;9.20;;;;;;;17.26;78.59;95008.41;5075190;28;20209;-72
2022/06/07 05:38:57;;;;;;;12.60;9.98;;;;;;;17.25;78.06;95009.63;5076005;28;20232;-72
2022/06/07 05:41:25;;;;;;;11.77;9.40;;;;;;;17.25;78.51;94994.88;5075254;28;20632;-72
2022/06/07 05:43:52;;;;;;;13.10;9.93;;;;;;;17.29;78.43;94996.47;5074294;28;20622;-72
2022/06/07 05:46:19;;;;;;;11.63;9.65;;;;;;;17.32;78.11;95000.47;5074992;28;20197;-72
2022/06/07 05:48:46;;;;;;;12.60;10.52;;;;;;;17.37;78.12;95005.63;5074390;28;20208;-72
2022/06/07 05:51:13;;;;;;;13.63;11.23;;;;;;;17.37;77.90;94997.25;5075800;28;20185;-72
2022/06/07 05:53:40;;;;;;;14.32;11.43;;;;;;;17.40;78.21;94999.25;5074539;28;20197;-72
2022/06/07 05:56:09;;;;;;;18.27;16.55;;;;;;;17.44;77.99;94999.25;5074740;28;20219;-72
2022/06/07 05:58:36;;;;;;;23.48;20.95;;;;;;;17.47;78.20;95002.03;5074869;28;20196;-72
2022/06/07 06:01:04;;;;;;;26.73;23.90;;;;;;;17.55;77.92;95003.63;5074193;28;20538;-72
2022/06/07 06:03:31;;;;;;;14.85;13.43;;;;;;;17.58;77.73;95002.03;5075315;28;20189;-72
2022/06/07 06:05:58;;;;;;;15.82;12.10;;;;;;;17.61;77.65;94995.66;5075478;28;20200;-72
2022/06/07 06:11:09;;;;;;;12.57;11.30;;;;;;;17.69;77.69;94991.66;5030822;28;20196;-72
2022/06/07 06:13:36;;;;;;;13.85;12.32;;;;;;;17.74;77.44;94990.47;5074257;28;20211;-72
2022/06/07 06:16:04;;;;;;;14.30;12.82;;;;;;;17.75;76.48;94992.88;5074785;28;20649;-72
2022/06/07 06:18:32;;;;;;;17.55;13.90;;;;;;;17.78;76.21;94994.06;5075066;28;20240;-72
2022/06/07 06:20:58;;;;;;;15.05;13.48;;;;;;;17.79;76.37;94996.47;5075380;28;20189;-72
2022/06/07 06:23:25;;;;;;;16.73;13.38;;;;;;;17.79;75.54;94990.88;5074986;28;20240;-72
2022/06/07 06:25:52;;;;;;;15.60;13.98;;;;;;;17.83;76.13;94999.25;5074587;28;20213;-72
2022/06/07 06:28:20;;;;;;;14.65;13.15;;;;;;;17.90;76.53;94988.06;5075110;28;20199;-72
2022/06/07 06:30:48;;;;;;;15.52;13.48;;;;;;;17.94;75.52;94991.66;5075255;28;20181;-73
2022/06/07 06:33:16;;;;;;;15.25;13.73;;;;;;;17.99;75.37;94979.28;5075013;28;20274;-73
2022/06/07 06:35:47;;;;;;;15.43;13.98;;;;;;;18.06;76.43;94984.84;5074999;28;20235;-73
2022/06/07 06:38:14;;;;;;;17.90;14.00;;;;;;;18.14;76.68;94978.03;5075022;28;20209;-73
2022/06/07 06:40:41;;;;;;;15.48;13.88;;;;;;;18.23;76.10;94978.41;5074741;28;20205;-72
2022/06/07 06:43:08;;;;;;;16.30;14.70;;;;;;;18.28;76.06;94975.19;5074557;28;20544;-73
2022/06/07 06:45:36;;;;;;;17.52;13.82;;;;;;;18.32;75.94;94986.34;5074499;28;20189;-72
2022/06/07 06:48:03;;;;;;;16.33;14.50;;;;;;;18.40;75.81;94985.09;5074947;28;20197;-72
2022/06/07 06:50:30;;;;;;;17.73;15.55;;;;;;;18.44;75.41;94976.72;5074065;28;20208;-72
2022/06/07 06:52:57;;;;;;;16.25;14.52;;;;;;;18.46;75.29;94969.53;5073923;28;20209;-72
2022/06/07 06:55:23;;;;;;;16.65;15.05;;;;;;;18.42;74.57;94971.53;5073836;28;20247;-72
2022/06/07 06:57:50;;;;;;;15.95;14.45;;;;;;;18.38;74.46;94970.75;5074463;28;20205;-73
2022/06/07 07:00:18;;;;;;;18.20;14.98;;;;;;;18.33;74.17;94968.38;5074149;28;20255;-72
2022/06/07 07:02:46;;;;;;;16.95;15.13;;;;;;;18.33;74.44;94960.00;5074440;28;20189;-72
2022/06/07 07:05:14;;;;;;;16.20;14.70;;;;;;;18.37;74.88;94962.78;5073230;28;20307;-72
2022/06/07 07:07:41;;;;;;;16.95;15.18;;;;;;;18.38;74.93;94956.81;5073813;28;20532;-72
2022/06/07 07:10:10;;;;;;;16.70;15.07;;;;;;;18.42;75.17;94959.59;5074782;28;20215;-72
2022/06/07 07:12:37;;;;;;;17.60;15.60;;;;;;;18.47;75.42;94959.16;5075372;28;20208;-72
2022/06/07 07:15:06;;;;;;;17.92;15.82;;;;;;;18.51;74.94;94959.91;5078329;28;20246;-72
2022/06/07 07:17:33;;;;;;;17.38;15.55;;;;;;;18.60;74.93;94956.69;5077414;28;20221;-72
2022/06/07 07:20:01;;;;;;;17.42;15.80;;;;;;;18.64;74.29;94955.47;5078331;28;20201;-72
2022/06/07 07:22:28;;;;;;;17.15;15.55;;;;;;;18.72;74.76;94959.84;5077830;28;20267;-72
2022/06/07 07:24:54;;;;;;;17.40;15.70;;;;;;;18.80;74.85;94957.00;5077442;28;20216;-72
2022/06/07 07:27:23;;;;;;;17.58;15.25;;;;;;;18.83;74.78;94961.78;5076914;28;20212;-72
2022/06/07 07:29:49;;;;;;;16.95;14.93;;;;;;;18.85;74.47;94959.38;5077592;28;20200;-72
2022/06/07 07:32:16;;;;;;;17.83;16.02;;;;;;;18.84;73.99;94950.16;5078114;28;20185;-72
2022/06/07 07:34:43;;;;;;;16.35;14.75;;;;;;;18.89;74.07;94949.75;5078049;28;20242;-72
2022/06/07 07:37:12;;;;;;;19.50;17.50;;;;;;;18.99;74.68;94948.91;5077673;28;20274;-72
2022/06/07 07:39:39;;;;;;;18.17;16.30;;;;;;;19.06;75.42;94938.84;5077500;28;20631;-72
2022/06/07 07:42:06;;;;;;;16.77;15.02;;;;;;;19.12;74.61;94940.81;5077313;28;20201;-72
2022/06/07 07:44:32;;;;;;;19.40;14.25;;;;;;;19.17;73.61;94939.56;5077530;28;20568;-72
2022/06/07 07:46:59;;;;;;;16.63;14.55;;;;;;;19.18;73.22;94933.56;5077956;28;20214;-73
2022/06/07 07:49:27;;;;;;;18.05;15.10;;;;;;;19.18;72.83;94935.56;5076748;28;20558;-72
2022/06/07 07:51:55;;;;;;;17.17;14.60;;;;;;;19.15;72.53;94928.00;5077144;28;20201;-72
2022/06/07 07:54:24;;;;;;;16.60;14.77;;;;;;;19.19;73.10;94926.75;5077695;28;20192;-72
2022/06/07 07:56:50;;;;;;;15.57;13.98;;;;;;;19.26;72.99;94925.13;5076872;28;20243;-72
2022/06/07 07:59:20;;;;;;;16.92;15.20;;;;;;;19.34;73.45;94921.84;5076621;28;20259;-72
2022/06/07 08:01:47;;;;;;;17.27;15.48;;;;;;;19.42;73.34;94919.78;5076227;28;20621;-72
2022/06/07 08:04:13;;;;;;;16.58;14.73;;;;;;;19.48;72.84;94915.31;5077167;28;20193;-72
2022/06/07 08:06:40;;;;;;;15.82;14.13;;;;;;;19.48;72.46;94907.72;5076784;28;20255;-72
2022/06/07 08:09:09;;;;;;;16.48;14.60;;;;;;;19.49;72.16;94911.31;5077140;28;20196;-72
2022/06/07 08:11:39;;;;;;;16.15;14.43;;;;;;;19.54;71.51;94907.28;5076528;28;20291;-72
2022/06/07 08:14:09;;;;;;;14.25;12.60;;;;;;;19.61;72.20;94898.84;5076944;28;20195;-72
2022/06/07 08:16:35;;;;;;;12.65;11.35;;;;;;;19.70;71.31;94894.34;5076266;28;20233;-73
2022/06/07 08:19:03;;;;;;;13.10;11.82;;;;;;;19.83;71.91;94896.63;5077414;28;20251;-73
2022/06/07 08:21:30;;;;;;;13.30;11.55;;;;;;;19.99;72.20;94890.44;5077144;28;20181;-73
2022/06/07 08:23:58;;;;;;;12.38;11.23;;;;;;;20.05;70.46;94886.75;5077355;28;20260;-73
2022/06/07 08:26:27;;;;;;;12.15;10.48;;;;;;;20.10;68.08;94891.88;5076296;28;20263;-73
2022/06/07 08:28:55;;;;;;;12.75;11.35;;;;;;;20.10;68.08;94886.28;5076834;28;20216;-73
2022/06/07 08:31:23;;;;;;;11.77;10.55;;;;;;;20.16;70.96;94879.00;5076660;28;20177;-73
2022/06/07 08:39:19;;;;;;;7.10;6.57;;;;;;;20.48;65.52;94869.41;5076654;28;20326;-73
2022/06/07 08:41:48;;;;;;;10.35;6.75;;;;;;;20.59;66.04;94872.06;5076161;28;20189;-72
2022/06/07 08:44:20;;;;;;;7.05;6.32;;;;;;;20.67;66.78;94870.75;5076969;28;20192;-72
2022/06/07 08:46:47;;;;;;;6.18;5.75;;;;;;;20.82;64.24;94868.53;5076344;28;20600;-72
2022/06/07 08:49:14;;;;;;;6.53;5.93;;;;;;;20.90;65.02;94865.16;5075820;28;20192;-72
2022/06/07 08:51:59;;;;;;;7.13;6.45;;;;;;;21.03;62.86;94864.59;5075640;28;20205;-72
2022/06/07 08:54:31;;;;;;;5.32;4.93;;;;;;;21.12;63.22;94860.00;5076487;28;20250;-72
2022/06/07 08:57:02;;;;;;;5.22;4.82;;;;;;;21.21;60.58;94855.88;5075879;28;20235;-72
2022/06/07 08:59:30;;;;;;;5.45;4.95;;;;;;;21.28;60.80;94855.72;5076357;28;20196;-72
2022/06/07 09:02:03;;;;;;;5.65;5.15;;;;;;;21.38;58.10;94846.38;5076438;28;20196;-72
2022/06/07 09:04:32;;;;;;;6.50;5.45;;;;;;;21.34;58.11;94840.81;5075583;28;20212;-72
2022/06/07 09:07:00;;;;;;;5.60;5.03;;;;;;;21.26;59.36;94836.53;5075615;28;20195;-72
2022/06/07 09:12:14;;;;;;;5.40;4.97;;;;;;;21.61;55.98;94834.34;5074122;28;20589;-72
2022/06/07 09:14:49;;;;;;;4.97;4.65;;;;;;;21.77;56.24;94836.41;5076150;28;20209;-72
2022/06/07 09:17:19;;;;;;;5.25;4.85;;;;;;;21.87;54.84;94841.03;5075138;28;20217;-72
2022/06/07 09:19:47;;;;;;;5.60;5.20;;;;;;;21.96;53.23;94827.19;5076098;28;20186;-72
2022/06/07 09:22:21;;;;;;;5.10;4.70;;;;;;;22.02;55.15;94831.09;5075280;28;20534;-72
2022/06/07 09:24:54;;;;;;;5.10;4.70;;;;;;;22.12;56.35;94829.28;5074550;28;20237;-72
2022/06/07 09:27:23;;;;;;;5.50;5.03;;;;;;;22.24;55.05;94819.44;5074731;28;20262;-72
2022/06/07 09:29:54;;;;;;;5.90;5.28;;;;;;;22.38;53.96;94821.13;5075966;28;20190;-72
2022/06/07 09:32:23;;;;;;;6.45;5.78;;;;;;;22.53;55.99;94828.81;5075293;28;20296;-72
2022/06/07 09:34:58;;;;;;;5.22;4.80;;;;;;;22.54;53.93;94810.69;5074338;28;20586;-72
2022/06/07 09:37:30;;;;;;;5.45;5.05;;;;;;;22.65;53.67;94815.28;5075739;28;20201;-73
2022/06/07 09:40:02;;;;;;;5.93;5.53;;;;;;;22.77;53.20;94811.81;5075113;28;20197;-72
2022/06/07 09:42:31;;;;;;;5.53;5.03;;;;;;;22.82;51.39;94805.66;5075737;28;20178;-71
2022/06/07 09:45:02;;;;;;;5.25;4.85;;;;;;;22.89;49.84;94804.69;5074701;28;20208;-72
2022/06/07 09:47:30;;;;;;;5.00;4.68;;;;;;;22.94;49.48;94788.09;5075437;28;20207;-72
2022/06/07 09:50:00;;;;;;;6.13;5.63;;;;;;;23.08;51.30;94794.59;5075250;28;20200;-72
2022/06/07 09:52:28;;;;;;;5.85;5.35;;;;;;;23.21;51.25;94798.28;5075471;28;20184;-72
2022/06/07 09:54:58;;;;;;;5.50;5.07;;;;;;;23.29;52.95;94786.38;5075618;28;20212;-72
2022/06/07 09:57:37;;;;;;;6.05;5.38;;;;;;;23.41;49.28;94796.13;5073841;28;20227;-73
2022/06/07 10:00:17;;;;;;;4.80;4.45;;;;;;;23.43;51.27;94785.22;5075377;28;20196;-72
2022/06/07 10:03:10;;;;;;;5.55;5.15;;;;;;;23.39;50.46;94790.16;5075433;28;20189;-72
2022/06/07 10:05:39;;;;;;;5.45;4.88;;;;;;;23.44;50.08;94781.16;5075332;28;20181;-72
2022/06/07 10:08:16;;;;;;;5.53;5.03;;;;;;;23.57;49.69;94777.59;5075348;28;20196;-72
2022/06/07 10:10:48;;;;;;;5.65;4.68;;;;;;;23.62;51.56;94780.69;5075425;28;20193;-72
2022/06/07 10:13:22;;;;;;;5.78;5.28;;;;;;;23.67;49.44;94780.16;5074302;28;20212;-72
2022/06/07 10:16:04;;;;;;;5.45;5.05;;;;;;;23.75;51.18;94777.94;5074891;28;20612;-72
2022/06/07 10:18:46;;;;;;;5.15;4.75;;;;;;;23.76;48.41;94774.66;5075184;28;20209;-72
2022/06/07 10:21:25;;;;;;;5.65;5.07;;;;;;;23.77;50.23;94767.00;5074087;28;20292;-73
2022/06/07 10:24:13;;;;;;;5.22;4.72;;;;;;;23.85;50.71;94767.59;5074882;28;20229;-72
2022/06/07 10:26:47;;;;;;;5.88;5.28;;;;;;;23.88;46.86;94761.06;5075058;28;20235;-72
2022/06/07 10:29:24;;;;;;;5.90;4.82;;;;;;;23.96;47.91;94766.03;5074110;28;20208;-72
2022/06/07 10:31:58;;;;;;;5.40;5.00;;;;;;;24.06;49.83;94761.34;5074779;28;20204;-72
2022/06/07 10:34:33;;;;;;;5.43;5.00;;;;;;;23.92;49.04;94751.28;5075195;28;20208;-72
2022/06/07 10:37:09;;;;;;;5.40;4.90;;;;;;;23.70;47.96;94755.94;5074867;28;20196;-72
2022/06/07 10:39:48;;;;;;;5.10;4.70;;;;;;;23.74;50.58;94748.19;5074135;28;20200;-73
2022/06/07 10:42:25;;;;;;;5.30;4.90;;;;;;;23.84;48.13;94743.50;5074543;28;20261;-73
2022/06/07 10:44:57;;;;;;;5.28;4.78;;;;;;;23.96;48.97;94740.69;5075155;28;20203;-72
2022/06/07 10:47:29;;;;;;;5.40;4.90;;;;;;;23.86;48.45;94735.41;5076205;28;20216;-72
2022/06/07 10:50:00;;;;;;;5.43;4.93;;;;;;;23.86;49.52;94746.66;5078014;28;20209;-72
2022/06/07 10:52:35;;;;;;;5.28;4.78;;;;;;;23.92;47.63;94734.38;5078138;28;20684;-72
2022/06/07 10:55:14;;;;;;;5.68;5.28;;;;;;;23.75;48.17;94732.91;5078530;28;20605;-73
2022/06/07 10:57:45;;;;;;;5.28;4.88;;;;;;;23.63;47.35;94723.13;5078429;28;20221;-73
2022/06/07 11:00:25;;;;;;;5.85;5.38;;;;;;;23.59;47.04;94724.47;5078938;28;20181;-73
2022/06/07 11:03:00;;;;;;;5.10;4.70;;;;;;;23.50;47.61;94727.94;5078646;28;20293;-73
2022/06/07 11:11:04;;;;;;;7.90;7.10;;;;;;;23.03;49.23;94714.38;5077293;28;20288;-72
2022/06/07 11:13:35;;;;;;;17.40;15.88;;;;;;;22.97;50.09;94716.91;5078416;28;20246;-72
2022/06/07 11:16:06;;;;;;;6.22;5.63;;;;;;;22.88;49.31;94719.53;5078286;28;20248;-72
2022/06/07 11:18:34;;;;;;;9.32;8.57;;;;;;;22.83;50.72;94718.03;5077414;28;20220;-72
2022/06/07 11:21:15;;;;;;;6.03;5.50;;;;;;;22.81;50.05;94719.72;5078061;28;20189;-72
2022/06/07 11:23:46;;;;;;;8.20;7.50;;;;;;;22.80;51.21;94718.94;5078172;28;20282;-72
2022/06/07 11:26:15;;;;;;;5.97;5.50;;;;;;;22.77;48.96;94716.22;5077404;28;20208;-72
2022/06/07 11:28:48;;;;;;;7.22;6.72;;;;;;;22.91;49.67;94717.84;5077607;28;20189;-72
2022/06/07 11:31:41;;;;;;;6.10;5.60;;;;;;;23.26;50.34;94713.31;5076861;28;20632;-72
2022/06/07 11:34:14;;;;;;;5.85;5.45;;;;;;;23.39;49.10;94713.41;5077485;28;20294;-72
2022/06/07 11:36:42;;;;;;;5.15;4.82;;;;;;;23.59;49.07;94711.19;5076147;28;20204;-72
2022/06/07 11:39:34;;;;;;;6.50;6.00;;;;;;;23.95;50.81;94696.88;5076742;28;20267;-72
2022/06/07 11:42:28;;;;;;;6.53;5.75;;;;;;;24.16;47.95;94695.44;5075455;28;20216;-72
2022/06/07 11:45:21;;;;;;;5.50;5.10;;;;;;;24.20;47.71;94690.47;5077650;28;20188;-72
2022/06/07 11:48:19;;;;;;;5.43;4.93;;;;;;;24.27;48.60;94690.22;5077055;28;20200;-72
2022/06/07 11:50:58;;;;;;;5.88;5.13;;;;;;;24.23;45.14;94691.59;5076529;28;20207;-72
2022/06/07 11:53:28;;;;;;;5.47;5.03;;;;;;;24.23;47.43;94683.94;5076775;28;20193;-72
2022/06/07 11:56:18;;;;;;;5.70;5.15;;;;;;;24.42;47.59;94672.91;5077427;28;20205;-72
2022/06/07 11:58:52;;;;;;;5.10;4.63;;;;;;;24.48;47.69;94671.88;5076836;28;20209;-72
2022/06/07 12:01:42;;;;;;;5.38;4.97;;;;;;;24.62;46.24;94667.00;5076649;28;20195;-72
2022/06/07 12:04:36;;;;;;;7.45;6.75;;;;;;;24.66;45.59;94657.19;5071633;28;20203;-72
2022/06/07 12:07:11;;;;;;;14.55;13.07;;;;;;;24.71;45.07;94655.81;5076738;28;20533;-73